Ana Sayfa
METAR-TAF:

METAR-TAF

Havaalanları :

İrkutsk, Rusya

Enlem: 52-16N, Boylam: 104-19E, yükseklik: 513 m

Güncel hava durumu gözlemi

Rapor saat 04:00 UTC de 45 dakika önce yapıldı.
Rüzgar güney/güneydoğudan 14 kt
Sıcaklık 14°C
Nem 58%
Basınç 1013 hPa
Görüş mesafesi 10 km veya daha fazla
1500 m altında bulut yok ve kümülonimbus yok

METAR: UIII 250400Z 15007MPS CAVOK 14/06 Q1013 R12/CLRD60 NOSIG RMK QFE718/0957

Saat: 12:45 (04:45 UTC)

Tahmin

Rapor saat 02:00 UTC de 2 saat ve 45 dakika önce yapıldı.
Ayın 25'si saat 03 UTC'den ayın 26'si saat 03 UTC'ye kadar geçerli Tahmin
Rüzgar güney/güneydoğudan 12 kt
Görüş mesafesi 10 km veya daha fazla
Dönüşüyor
ayın 25'si saat 20 UTC'den ayın 25'si saat 22 UTC'ye kadar
Rüzgar batı/kuzeybatıdan 10 kt
1200 ft yükseklikte parçalı çok bulutlu, Kümülonimbus.

TAF: UIII 250200Z 2503/2603 16006MPS 9999 NSC BECMG 2520/2522 30005MPS BKN012CB

4.000'den fazla havaalanı için hava durumu gözlemleri ve tahminleri (METAR ve TAF raporları).

Kullanılabilir istasyonlar harita üzerinde sarı ve kırmızı noktalarla gösterilir.

İstasyonun adını görmek için fareyi noktanın üzerinde gezdirin.

Sonrasında hava gözlem ve tahminlerini görmek için tıklayın.

Haritayı değiştirmek için: yaklaştırmak için siyah artı işaretli yeşil düğmeye ve uzaklaştırmak için de eksi işaretli düğmeye hızla tıklayın; bitişik haritalar için yeşil okları kullanın.


METAR-TAF: